Terminal Aerodrome Forecast
Issued by NWS

Home | Current Version | Previous Version | Text Only | Print | Product List | Glossary On
Versions: 1 2 3 4 5 6 7 8 9 10 11 12 13 14 15 16 17 18 19 20 21 22 23 24 25
000
FTUS41 KCTP 241726
TAFBFD
TAF
KBFD 241726Z 2418/2518 23010G20KT P6SM FEW050 SCT070
     FM250300 26008KT P6SM OVC015
     FM250500 26009KT 6SM BR OVC007 PROB30 2505/2506 6SM -DZ OVC007
     FM251000 27005KT 4SM BR OVC003 PROB30 2510/2511 6SM -DZ OVC007
     FM251600 32004KT 2SM -DZ BR OVC003=

USA.gov is the U.S. government's official web portal to all federal, state and local government web resources and services.